Time;durP1;ratioP1;P1;durP2;ratioP2;P2;SDS_P1;SDS_P2;PMS_P1;PMS_P2;Temp;Humidity;BMP_temperature;BMP_pressure;BME280_temperature;BME280_humidity;BME280_pressure;Samples;Min_cycle;Max_cycle;Signal;HPM_P1;HPM_P2
2023/04/23 00:01:19;;;;;;;22.08;15.25;;;11.80;48.40;;;;;;5050192;27;114686;-82
2023/04/23 00:03:47;;;;;;;21.95;15.30;;;11.80;48.70;;;;;;5067727;27;114241;-83
2023/04/23 00:06:16;;;;;;;18.48;15.23;;;11.80;48.80;;;;;;5065271;27;114831;-83
2023/04/23 00:08:43;;;;;;;20.83;14.95;;;11.80;48.70;;;;;;5065389;27;114657;-83
2023/04/23 00:11:11;;;;;;;22.77;15.93;;;11.80;48.70;;;;;;5065302;27;114690;-83
2023/04/23 00:13:39;;;;;;;20.17;15.50;;;11.80;48.80;;;;;;5067815;27;114241;-83
2023/04/23 00:16:06;;;;;;;23.17;16.65;;;11.80;48.80;;;;;;5064397;27;114891;-83
2023/04/23 00:18:34;;;;;;;24.98;17.52;;;11.80;49.00;;;;;;5048068;27;114622;-83
2023/04/23 00:21:01;;;;;;;22.58;16.58;;;11.80;49.20;;;;;;5066817;27;114575;-83
2023/04/23 00:23:28;;;;;;;24.25;16.52;;;11.80;49.20;;;;;;5066067;27;114410;-83
2023/04/23 00:25:55;;;;;;;22.80;15.43;;;11.70;49.10;;;;;;5043078;27;114901;-83
2023/04/23 00:28:23;;;;;;;22.75;14.18;;;11.70;49.20;;;;;;5044995;27;114722;-83
2023/04/23 00:30:50;;;;;;;18.92;14.10;;;11.70;48.90;;;;;;5045628;27;114374;-84
2023/04/23 00:33:17;;;;;;;20.02;14.48;;;11.70;49.00;;;;;;5028370;27;114321;-83
2023/04/23 00:35:44;;;;;;;22.13;14.52;;;11.70;49.00;;;;;;5046178;27;114916;-82
2023/04/23 00:38:14;;;;;;;19.73;13.63;;;11.60;48.80;;;;;;5044661;27;114870;-82
2023/04/23 00:40:44;;;;;;;18.73;14.15;;;11.60;48.80;;;;;;5045277;27;114514;-83
2023/04/23 00:43:11;;;;;;;16.95;13.35;;;11.50;48.70;;;;;;5028539;27;114810;-83
2023/04/23 00:45:38;;;;;;;20.77;14.10;;;11.40;48.90;;;;;;5044402;27;114968;-83
2023/04/23 00:48:05;;;;;;;17.42;13.95;;;11.50;48.90;;;;;;5044493;27;118372;-82
2023/04/23 00:50:32;;;;;;;16.00;13.13;;;11.50;48.90;;;;;;5028260;27;114366;-82
2023/04/23 00:52:59;;;;;;;23.60;13.48;;;11.40;48.90;;;;;;5045259;27;114367;-81
2023/04/23 00:55:26;;;;;;;17.48;13.27;;;11.50;48.90;;;;;;5045025;27;115780;-82
2023/04/23 00:57:53;;;;;;;15.65;12.68;;;11.40;48.80;;;;;;5026660;27;114701;-82
2023/04/23 01:00:21;;;;;;;15.57;12.60;;;11.50;49.00;;;;;;5045054;27;114634;-82
2023/04/23 01:02:49;;;;;;;18.45;13.68;;;11.40;49.20;;;;;;5044371;27;114300;-83
2023/04/23 01:05:16;;;;;;;19.35;14.00;;;11.50;49.20;;;;;;5009159;27;118530;-82
2023/04/23 01:07:44;;;;;;;19.38;13.80;;;11.40;49.20;;;;;;5026439;27;114678;-82
2023/04/23 01:10:11;;;;;;;17.02;12.98;;;11.40;49.20;;;;;;5010549;27;114856;-83
2023/04/23 01:12:38;;;;;;;15.48;13.45;;;11.40;49.40;;;;;;5027119;27;114389;-82
2023/04/23 01:15:07;;;;;;;19.25;13.05;;;11.50;49.40;;;;;;5042822;27;117968;-82
2023/04/23 01:17:35;;;;;;;21.52;14.27;;;11.40;49.40;;;;;;5063254;27;114895;-81
2023/04/23 01:20:05;;;;;;;20.60;12.70;;;11.40;49.20;;;;;;5063681;27;114206;-82
2023/04/23 01:22:36;;;;;;;16.55;12.20;;;11.40;49.20;;;;;;5065379;27;116636;-82
2023/04/23 01:25:03;;;;;;;18.90;12.98;;;11.40;49.50;;;;;;5062824;27;115020;-82
2023/04/23 01:27:31;;;;;;;17.35;12.25;;;11.30;49.20;;;;;;5063213;27;114301;-82
2023/04/23 01:29:59;;;;;;;19.95;12.85;;;11.30;49.40;;;;;;5046638;27;114306;-83
2023/04/23 01:32:26;;;;;;;16.70;12.70;;;11.30;49.20;;;;;;5047119;27;114495;-82
2023/04/23 01:34:55;;;;;;;16.60;12.25;;;11.30;49.20;;;;;;5046125;27;115081;-83
2023/04/23 01:37:22;;;;;;;17.35;12.82;;;11.30;49.30;;;;;;5033493;27;115283;-82
2023/04/23 01:39:50;;;;;;;16.08;11.82;;;11.30;49.40;;;;;;5044800;27;117828;-81
2023/04/23 01:42:17;;;;;;;16.25;11.82;;;11.30;49.20;;;;;;5063755;27;114526;-81
2023/04/23 01:44:44;;;;;;;16.85;12.18;;;11.20;49.10;;;;;;5043151;27;116068;-80
2023/04/23 01:47:11;;;;;;;15.75;11.68;;;11.20;49.50;;;;;;5044212;27;114650;-81
2023/04/23 01:49:38;;;;;;;18.90;12.18;;;11.20;49.70;;;;;;5026426;27;115316;-81
2023/04/23 01:52:05;;;;;;;16.10;12.43;;;11.30;49.60;;;;;;5043014;27;114320;-82
2023/04/23 01:54:33;;;;;;;15.95;12.52;;;11.30;49.40;;;;;;5048033;27;115006;-82
2023/04/23 01:57:00;;;;;;;16.40;11.82;;;11.30;49.50;;;;;;5063647;27;115901;-82
2023/04/23 01:59:27;;;;;;;15.82;12.15;;;11.30;49.50;;;;;;5046528;27;114748;-81
2023/04/23 02:01:54;;;;;;;14.70;11.02;;;11.30;49.50;;;;;;5064530;27;114365;-81
2023/04/23 02:04:22;;;;;;;16.45;13.07;;;11.30;49.50;;;;;;5063919;27;115135;-82
2023/04/23 02:06:50;;;;;;;15.75;11.52;;;11.30;49.40;;;;;;5045843;27;114700;-82
2023/04/23 02:09:17;;;;;;;15.75;12.07;;;11.40;49.50;;;;;;5064087;27;114552;-82
2023/04/23 02:11:45;;;;;;;15.85;10.93;;;11.30;49.40;;;;;;5063887;27;116503;-82
2023/04/23 02:14:12;;;;;;;16.02;11.80;;;11.30;49.40;;;;;;5045206;27;114980;-83
2023/04/23 02:16:40;;;;;;;15.68;11.77;;;11.30;49.40;;;;;;5046440;27;114853;-82
2023/04/23 02:19:07;;;;;;;17.20;12.55;;;11.30;49.40;;;;;;5043665;27;115844;-82
2023/04/23 02:21:34;;;;;;;16.92;11.07;;;11.30;49.20;;;;;;5025680;27;114820;-82
2023/04/23 02:24:01;;;;;;;15.15;11.68;;;11.40;49.10;;;;;;5043068;27;114915;-83
2023/04/23 02:26:29;;;;;;;15.95;11.48;;;11.30;49.00;;;;;;5043146;27;114636;-83
2023/04/23 02:28:56;;;;;;;15.13;11.25;;;11.30;49.30;;;;;;5052711;27;114268;-83
2023/04/23 02:31:24;;;;;;;13.88;10.57;;;11.30;49.20;;;;;;5030899;27;114367;-83
2023/04/23 02:33:51;;;;;;;14.35;10.95;;;11.20;49.20;;;;;;5045202;27;114928;-83
2023/04/23 02:36:20;;;;;;;14.25;10.32;;;11.30;49.20;;;;;;5044430;27;114635;-81
2023/04/23 02:38:49;;;;;;;15.93;10.68;;;11.20;49.30;;;;;;5027581;27;114191;-83
2023/04/23 02:41:17;;;;;;;14.05;10.85;;;11.20;49.30;;;;;;5028165;27;114056;-83
2023/04/23 02:43:44;;;;;;;15.90;10.68;;;11.20;49.80;;;;;;5043868;27;114901;-83
2023/04/23 02:46:11;;;;;;;17.30;11.00;;;11.20;49.50;;;;;;5026031;27;114721;-83
2023/04/23 02:48:39;;;;;;;17.40;10.45;;;11.20;49.60;;;;;;5043525;27;114189;-83
2023/04/23 02:51:10;;;;;;;15.95;10.70;;;11.20;49.50;;;;;;5043611;27;114410;-83
2023/04/23 02:53:37;;;;;;;15.75;10.32;;;11.20;49.30;;;;;;4992690;27;116179;-82
2023/04/23 02:56:04;;;;;;;13.50;10.25;;;11.20;49.30;;;;;;5026357;27;114591;-82
2023/04/23 02:58:31;;;;;;;14.68;10.93;;;11.20;49.40;;;;;;5047146;27;114275;-82
2023/04/23 03:01:00;;;;;;;15.23;11.30;;;11.20;49.70;;;;;;5047347;27;114564;-83
2023/04/23 03:03:30;;;;;;;12.75;9.55;;;11.20;49.60;;;;;;5028819;27;114970;-83
2023/04/23 03:06:00;;;;;;;15.25;9.73;;;11.20;49.60;;;;;;5029686;27;115241;-82
2023/04/23 03:08:27;;;;;;;14.93;9.88;;;11.20;49.60;;;;;;5029672;27;114998;-82
2023/04/23 03:10:55;;;;;;;14.80;9.85;;;11.20;49.50;;;;;;5046743;27;114331;-82
2023/04/23 03:13:22;;;;;;;13.57;10.25;;;11.20;49.30;;;;;;5029244;27;114966;-82
2023/04/23 03:15:50;;;;;;;13.07;9.68;;;11.20;49.40;;;;;;5028480;27;116139;-82
2023/04/23 03:18:18;;;;;;;15.40;9.90;;;11.20;49.30;;;;;;5046286;27;114547;-82
2023/04/23 03:20:48;;;;;;;16.23;10.15;;;11.20;49.30;;;;;;5077772;27;114610;-82
2023/04/23 03:23:17;;;;;;;13.15;10.00;;;11.20;49.30;;;;;;5059778;27;115219;-82
2023/04/23 03:25:46;;;;;;;14.98;9.50;;;11.20;49.60;;;;;;5028634;27;116073;-81
2023/04/23 03:28:13;;;;;;;15.75;9.85;;;11.20;49.40;;;;;;5046966;27;114295;-82
2023/04/23 03:30:40;;;;;;;13.93;9.68;;;11.20;49.30;;;;;;5047887;27;114315;-82
2023/04/23 03:33:08;;;;;;;12.13;9.98;;;11.20;49.10;;;;;;5027893;27;115931;-81
2023/04/23 03:35:35;;;;;;;13.82;9.85;;;11.20;49.30;;;;;;5045743;27;118702;-82
2023/04/23 03:38:05;;;;;;;12.57;10.68;;;11.20;49.40;;;;;;5046832;27;114566;-82
2023/04/23 03:40:34;;;;;;;13.32;9.98;;;11.20;49.20;;;;;;5046537;27;114555;-82
2023/04/23 03:43:03;;;;;;;15.05;10.40;;;11.20;49.30;;;;;;5045692;27;114926;-82
2023/04/23 03:45:49;;;;;;;11.70;9.55;;;11.20;49.30;;;;;;5045433;27;114637;-82
2023/04/23 03:48:16;;;;;;;12.35;9.95;;;11.10;49.40;;;;;;5046325;27;114468;-82
2023/04/23 03:50:43;;;;;;;15.02;9.90;;;11.10;49.50;;;;;;5046163;27;114406;-83
2023/04/23 03:53:23;;;;;;;15.27;9.57;;;11.20;49.60;;;;;;5029695;27;115554;-82
2023/04/23 03:56:27;;;;;;;14.65;9.48;;;11.20;49.60;;;;;;5065051;27;114903;-82
2023/04/23 03:59:17;;;;;;;12.07;9.60;;;11.20;49.50;;;;;;5065874;27;114608;-84
2023/04/23 04:01:47;;;;;;;13.20;9.38;;;11.10;49.50;;;;;;5049772;27;114159;-82
2023/04/23 04:04:14;;;;;;;14.48;10.60;;;11.20;49.50;;;;;;5070721;27;119131;-82
2023/04/23 04:06:42;;;;;;;13.75;10.13;;;11.20;49.60;;;;;;5045992;27;114589;-83
2023/04/23 04:09:09;;;;;;;13.82;10.25;;;11.20;49.40;;;;;;5045422;27;114444;-83
2023/04/23 04:11:36;;;;;;;17.60;11.02;;;11.40;49.60;;;;;;5045421;27;114303;-83
2023/04/23 04:14:03;;;;;;;15.95;10.70;;;11.50;49.80;;;;;;5044805;27;114882;-81
2023/04/23 04:16:32;;;;;;;16.73;9.98;;;11.70;49.40;;;;;;5045027;27;114663;-82
2023/04/23 04:19:00;;;;;;;14.10;10.65;;;11.80;49.30;;;;;;5043329;27;114454;-83
2023/04/23 04:21:27;;;;;;;15.02;10.27;;;11.90;48.80;;;;;;5035677;27;114818;-82
2023/04/23 04:23:55;;;;;;;15.23;10.63;;;12.00;48.50;;;;;;5044501;27;115476;-83
2023/04/23 04:26:22;;;;;;;12.55;9.75;;;12.30;48.20;;;;;;5041042;27;114674;-82
2023/04/23 04:28:50;;;;;;;13.70;9.55;;;12.40;48.10;;;;;;5042358;27;114458;-84
2023/04/23 04:31:20;;;;;;;15.85;9.63;;;12.60;47.80;;;;;;5041963;27;114549;-85
2023/04/23 04:33:48;;;;;;;12.07;9.60;;;12.70;47.40;;;;;;5026838;27;114909;-85
2023/04/23 04:36:15;;;;;;;15.43;10.20;;;12.80;47.00;;;;;;5042553;27;114662;-84
2023/04/23 04:38:42;;;;;;;15.40;10.80;;;13.00;46.60;;;;;;5044608;27;114547;-83
2023/04/23 04:41:10;;;;;;;11.80;9.80;;;13.10;46.40;;;;;;5044274;27;114445;-83
2023/04/23 04:43:37;;;;;;;15.23;9.25;;;13.20;46.10;;;;;;5043844;27;116376;-84
2023/04/23 04:46:05;;;;;;;13.15;9.10;;;13.40;46.00;;;;;;5042253;27;114660;-83
2023/04/23 04:48:34;;;;;;;12.57;8.98;;;13.60;45.70;;;;;;5045363;27;114241;-83
2023/04/23 04:51:05;;;;;;;13.52;9.73;;;13.70;47.00;;;;;;5023869;27;114214;-82
2023/04/23 04:53:34;;;;;;;11.93;8.40;;;13.80;46.70;;;;;;5069026;27;114944;-83
2023/04/23 04:56:06;;;;;;;12.68;9.10;;;14.00;45.70;;;;;;5066510;27;115835;-83
2023/04/23 04:58:39;;;;;;;10.75;8.80;;;14.10;45.70;;;;;;5044639;27;114283;-82
2023/04/23 05:01:06;;;;;;;9.77;8.40;;;14.30;45.20;;;;;;5044729;27;114757;-82
2023/04/23 05:03:34;;;;;;;11.25;8.52;;;14.50;44.20;;;;;;5041057;27;115231;-83
2023/04/23 05:06:02;;;;;;;11.50;8.32;;;14.70;44.40;;;;;;5024930;27;117279;-82
2023/04/23 05:08:32;;;;;;;11.30;8.77;;;14.80;43.70;;;;;;5044625;27;114690;-83
2023/04/23 05:11:00;;;;;;;12.43;8.60;;;15.00;44.10;;;;;;5045714;27;116088;-82
2023/04/23 05:13:30;;;;;;;12.45;8.93;;;15.10;43.70;;;;;;5044267;27;116299;-82
2023/04/23 05:15:58;;;;;;;11.95;7.57;;;15.30;42.60;;;;;;5045531;27;114636;-82
2023/04/23 05:18:26;;;;;;;11.13;7.65;;;15.50;42.00;;;;;;5046265;27;114339;-83
2023/04/23 05:20:53;;;;;;;11.40;7.85;;;15.70;41.70;;;;;;5045341;27;114495;-82
2023/04/23 05:23:20;;;;;;;11.48;7.03;;;15.80;41.60;;;;;;5044822;27;114959;-82
2023/04/23 05:25:50;;;;;;;11.10;6.80;;;15.90;40.50;;;;;;5041743;27;114661;-83
2023/04/23 05:28:22;;;;;;;10.90;7.47;;;15.90;40.30;;;;;;5046350;27;114258;-83
2023/04/23 05:30:50;;;;;;;9.68;7.32;;;16.00;40.70;;;;;;5045137;27;114499;-81
2023/04/23 05:33:17;;;;;;;10.95;6.95;;;16.20;40.30;;;;;;5045306;27;114760;-82
2023/04/23 05:35:54;;;;;;;9.43;6.20;;;16.30;39.30;;;;;;5044948;27;115051;-84
2023/04/23 05:38:32;;;;;;;9.00;6.78;;;16.40;39.10;;;;;;4998917;27;114407;-83
2023/04/23 05:41:00;;;;;;;12.07;7.35;;;16.60;39.60;;;;;;5046184;27;114162;-82
2023/04/23 05:43:27;;;;;;;12.15;7.53;;;16.80;39.20;;;;;;5044810;27;114859;-82
2023/04/23 05:45:57;;;;;;;11.63;6.75;;;17.00;38.20;;;;;;5043540;27;115295;-82
2023/04/23 05:48:25;;;;;;;9.52;6.78;;;17.10;37.90;;;;;;5044897;27;114326;-82
2023/04/23 05:50:53;;;;;;;10.07;6.97;;;17.20;37.70;;;;;;5044159;27;114474;-83
2023/04/23 05:53:23;;;;;;;12.48;6.97;;;17.30;37.40;;;;;;5026495;27;115025;-84
2023/04/23 05:55:51;;;;;;;9.93;6.72;;;17.40;36.70;;;;;;5044228;27;114633;-84
2023/04/23 05:58:19;;;;;;;9.45;6.60;;;17.60;37.30;;;;;;5043032;27;114548;-84
2023/04/23 06:00:46;;;;;;;9.23;6.38;;;17.70;36.90;;;;;;5043017;27;114507;-82
2023/04/23 06:03:13;;;;;;;9.55;6.25;;;17.80;36.00;;;;;;5043234;27;115098;-83
2023/04/23 06:05:42;;;;;;;8.93;6.15;;;17.80;36.40;;;;;;5044200;27;120233;-84
2023/04/23 06:08:09;;;;;;;8.50;6.28;;;18.00;36.60;;;;;;5045985;27;114329;-82
2023/04/23 06:10:36;;;;;;;9.38;6.40;;;18.20;35.50;;;;;;5064195;27;114381;-82
2023/04/23 06:13:03;;;;;;;8.73;6.07;;;18.20;35.40;;;;;;5044611;27;115050;-82
2023/04/23 06:15:31;;;;;;;8.35;6.05;;;18.20;35.20;;;;;;5042915;27;114685;-82
2023/04/23 06:17:58;;;;;;;6.63;5.70;;;18.20;34.90;;;;;;5043121;27;114774;-82
2023/04/23 06:20:26;;;;;;;8.57;5.50;;;18.20;35.00;;;;;;5045024;27;114716;-82
2023/04/23 06:22:53;;;;;;;10.10;5.68;;;18.30;34.60;;;;;;5044432;27;114978;-84
2023/04/23 06:25:20;;;;;;;8.30;5.72;;;18.20;34.40;;;;;;5043257;27;114672;-83
2023/04/23 06:27:47;;;;;;;8.02;5.78;;;18.20;34.90;;;;;;5043390;27;114376;-84
2023/04/23 06:30:19;;;;;;;6.70;5.38;;;18.30;35.00;;;;;;5043086;27;114314;-84
2023/04/23 06:32:48;;;;;;;9.18;5.72;;;18.60;34.80;;;;;;5044501;27;114911;-85
2023/04/23 06:35:15;;;;;;;8.45;6.03;;;18.80;33.70;;;;;;5042855;27;115088;-84
2023/04/23 06:37:42;;;;;;;11.82;5.82;;;18.70;34.00;;;;;;5048098;27;114539;-85
2023/04/23 06:40:13;;;;;;;9.60;5.80;;;18.60;34.00;;;;;;5048220;27;118595;-84
2023/04/23 06:42:41;;;;;;;6.60;5.30;;;18.70;34.00;;;;;;5048329;27;116184;-83
2023/04/23 06:45:15;;;;;;;9.60;5.63;;;18.60;34.00;;;;;;5029590;27;116307;-84
2023/04/23 06:47:44;;;;;;;8.38;5.90;;;18.70;34.20;;;;;;5048482;27;114283;-83
2023/04/23 06:50:12;;;;;;;8.68;5.53;;;18.80;34.20;;;;;;5029890;27;114436;-83
2023/04/23 06:52:39;;;;;;;11.57;5.38;;;18.80;33.70;;;;;;5046897;27;115222;-83
2023/04/23 06:55:07;;;;;;;7.43;5.30;;;18.80;33.80;;;;;;5046157;27;114820;-84
2023/04/23 06:57:34;;;;;;;10.48;6.15;;;18.80;33.70;;;;;;5047327;27;114155;-82
2023/04/23 07:00:02;;;;;;;9.77;5.70;;;18.80;33.70;;;;;;5048714;27;114352;-82
2023/04/23 07:02:35;;;;;;;10.30;5.60;;;18.80;34.10;;;;;;5046008;27;115319;-83
2023/04/23 07:05:03;;;;;;;7.00;5.35;;;19.00;34.00;;;;;;5044609;27;115916;-83
2023/04/23 07:07:30;;;;;;;7.97;5.82;;;19.10;33.40;;;;;;5046643;27;114592;-82
2023/04/23 07:09:57;;;;;;;10.80;6.00;;;19.10;33.30;;;;;;5052325;27;115664;-83
2023/04/23 07:12:24;;;;;;;8.57;5.57;;;19.00;33.80;;;;;;5053096;27;114797;-82
2023/04/23 07:14:53;;;;;;;8.43;6.15;;;19.20;33.40;;;;;;5044380;27;114869;-82
2023/04/23 07:17:20;;;;;;;7.70;5.15;;;19.10;33.60;;;;;;5046272;27;114286;-83
2023/04/23 07:19:49;;;;;;;10.02;5.55;;;19.10;33.70;;;;;;5044159;27;114580;-83
2023/04/23 07:22:23;;;;;;;11.48;5.25;;;19.20;33.50;;;;;;5028788;27;115421;-83
2023/04/23 07:24:51;;;;;;;8.73;5.35;;;19.30;33.30;;;;;;5045009;27;114688;-84
2023/04/23 07:27:19;;;;;;;7.30;5.32;;;19.20;33.50;;;;;;5013560;27;114229;-82
2023/04/23 07:29:46;;;;;;;10.32;5.53;;;19.30;32.80;;;;;;5048180;27;117250;-82
2023/04/23 07:32:16;;;;;;;10.05;5.35;;;19.30;32.70;;;;;;5051322;27;115037;-82
2023/04/23 07:34:46;;;;;;;7.47;5.50;;;19.30;32.70;;;;;;5051269;27;114238;-83
2023/04/23 07:37:13;;;;;;;8.43;5.55;;;19.30;32.40;;;;;;5051263;27;114402;-82
2023/04/23 07:39:40;;;;;;;9.40;5.30;;;19.30;32.70;;;;;;5051282;27;114651;-83
2023/04/23 07:42:19;;;;;;;8.18;4.85;;;19.30;32.60;;;;;;5049011;27;114556;-83
2023/04/23 07:44:47;;;;;;;8.77;5.20;;;19.60;32.30;;;;;;5046164;27;114601;-83
2023/04/23 07:47:14;;;;;;;8.85;5.57;;;19.70;32.00;;;;;;5062825;27;114593;-84
2023/04/23 07:49:41;;;;;;;7.07;5.15;;;19.80;31.30;;;;;;5066463;27;114561;-83
2023/04/23 07:52:10;;;;;;;6.90;4.72;;;19.80;31.10;;;;;;5048661;27;114922;-83
2023/04/23 07:54:37;;;;;;;9.30;5.18;;;19.80;31.60;;;;;;5066117;27;114561;-83
2023/04/23 07:57:04;;;;;;;6.95;4.85;;;19.80;31.20;;;;;;5050901;27;114139;-84
2023/04/23 07:59:31;;;;;;;8.73;4.63;;;19.90;31.50;;;;;;5030867;27;114646;-84
2023/04/23 08:01:59;;;;;;;7.03;5.22;;;19.90;31.10;;;;;;5026609;27;117962;-85
2023/04/23 08:04:26;;;;;;;8.23;5.07;;;19.90;31.20;;;;;;5013000;27;114983;-83
2023/04/23 08:06:53;;;;;;;8.73;4.80;;;19.90;31.00;;;;;;5072113;27;114561;-83
2023/04/23 08:09:20;;;;;;;7.50;4.85;;;19.80;31.00;;;;;;5011980;27;114366;-83
2023/04/23 08:11:47;;;;;;;7.57;4.60;;;19.80;31.60;;;;;;5026702;27;115256;-84
2023/04/23 08:14:14;;;;;;;7.85;4.88;;;19.80;32.00;;;;;;5027635;27;114750;-84
2023/04/23 08:16:41;;;;;;;7.32;4.60;;;20.10;31.90;;;;;;4995288;27;114187;-83
2023/04/23 08:19:08;;;;;;;6.78;4.90;;;20.40;31.40;;;;;;5016032;27;114458;-84
2023/04/23 08:21:39;;;;;;;7.72;4.50;;;20.60;30.70;;;;;;5012672;27;114973;-83
2023/04/23 08:24:07;;;;;;;6.95;4.53;;;20.50;30.20;;;;;;5011921;27;118058;-84
2023/04/23 08:26:35;;;;;;;7.00;3.95;;;20.60;30.70;;;;;;5051267;27;114585;-84
2023/04/23 08:29:04;;;;;;;8.05;4.20;;;20.70;29.90;;;;;;5031044;27;114286;-84
2023/04/23 08:31:31;;;;;;;5.03;3.65;;;20.90;29.60;;;;;;5010177;27;115072;-82
2023/04/23 08:33:59;;;;;;;5.55;3.92;;;21.10;29.00;;;;;;5045239;27;114698;-83
2023/04/23 08:36:27;;;;;;;6.45;3.30;;;21.30;28.70;;;;;;5012178;27;114486;-85
2023/04/23 08:38:54;;;;;;;6.45;4.03;;;21.50;28.10;;;;;;5047900;27;114611;-84
2023/04/23 08:41:23;;;;;;;6.20;3.90;;;21.50;28.00;;;;;;5046277;27;115493;-84
2023/04/23 08:44:13;;;;;;;7.63;3.65;;;21.60;27.80;;;;;;5028919;27;114689;-83
2023/04/23 08:46:42;;;;;;;11.10;4.20;;;21.70;27.90;;;;;;5029180;27;117643;-83
2023/04/23 08:49:15;;;;;;;6.82;3.58;;;21.70;27.90;;;;;;5012184;27;118464;-84
2023/04/23 08:51:49;;;;;;;9.15;4.25;;;21.80;28.20;;;;;;5025226;27;114950;-85
2023/04/23 08:54:34;;;;;;;;;;;21.80;28.50;;;;;;5026263;27;117409;-85
2023/04/23 08:57:02;;;;;;;6.75;3.95;;;21.80;29.60;;;;;;5012911;27;114285;-84
2023/04/23 08:59:33;;;;;;;8.10;3.90;;;21.80;28.80;;;;;;5030793;27;114444;-85
2023/04/23 09:02:06;;;;;;;6.22;3.83;;;21.90;27.90;;;;;;5025339;27;115062;-84
2023/04/23 09:04:35;;;;;;;6.82;3.30;;;22.00;27.90;;;;;;5013692;27;117731;-84
2023/04/23 09:07:05;;;;;;;7.40;3.65;;;22.10;27.50;;;;;;5044829;27;114600;-84
2023/04/23 09:09:33;;;;;;;6.30;3.95;;;22.00;27.90;;;;;;5008493;27;114575;-84
2023/04/23 09:12:02;;;;;;;5.03;3.50;;;22.00;27.60;;;;;;5023803;27;115510;-85
2023/04/23 09:14:30;;;;;;;6.18;3.72;;;22.00;27.90;;;;;;5011289;27;114711;-85
2023/04/23 09:16:57;;;;;;;7.65;3.95;;;22.10;27.20;;;;;;4994190;27;114576;-85
2023/04/23 09:19:26;;;;;;;7.47;3.30;;;22.20;27.40;;;;;;5011521;27;114410;-86
2023/04/23 09:21:53;;;;;;;5.95;3.50;;;22.30;28.00;;;;;;5010243;27;117851;-84
2023/04/23 09:24:21;;;;;;;5.40;3.58;;;22.30;27.50;;;;;;5026381;27;118211;-84
2023/04/23 09:26:50;;;;;;;8.07;3.35;;;22.40;27.30;;;;;;4994417;27;114200;-84
2023/04/23 09:29:20;;;;;;;6.13;3.90;;;22.40;27.50;;;;;;5031958;27;114559;-84
2023/04/23 09:31:48;;;;;;;7.68;3.67;;;22.40;27.40;;;;;;5009867;27;115396;-85
2023/04/23 09:34:17;;;;;;;6.78;3.92;;;22.60;27.30;;;;;;5023935;27;116278;-84
2023/04/23 09:36:44;;;;;;;6.05;3.70;;;22.60;26.90;;;;;;5010957;27;114543;-85
2023/04/23 09:39:12;;;;;;;7.30;3.60;;;22.60;26.50;;;;;;5044973;27;114282;-85
2023/04/23 09:41:40;;;;;;;6.97;3.70;;;22.60;26.60;;;;;;4986895;27;115962;-85
2023/04/23 09:44:08;;;;;;;6.95;3.88;;;22.60;26.40;;;;;;5043658;27;115014;-85
2023/04/23 09:46:42;;;;;;;5.18;3.60;;;22.50;26.00;;;;;;5010327;27;114272;-85
2023/04/23 09:49:11;;;;;;;7.80;3.42;;;22.30;26.40;;;;;;5026791;27;114624;-85
2023/04/23 09:51:40;;;;;;;6.00;3.58;;;22.30;26.60;;;;;;5008157;27;115080;-84
2023/04/23 09:54:15;;;;;;;5.70;3.88;;;22.30;27.00;;;;;;5026259;27;114708;-85
2023/04/23 09:56:42;;;;;;;7.10;3.58;;;22.50;27.20;;;;;;5010494;27;114589;-84
2023/04/23 09:59:23;;;;;;;7.55;3.70;;;22.50;26.80;;;;;;5024744;27;114619;-84
2023/04/23 10:02:10;;;;;;;5.82;3.50;;;22.60;27.60;;;;;;5028401;27;114923;-86
2023/04/23 10:04:38;;;;;;;6.05;3.38;;;22.60;26.90;;;;;;5042996;27;114671;-86
2023/04/23 10:07:07;;;;;;;6.22;4.03;;;22.60;26.60;;;;;;5024722;27;114541;-85
2023/04/23 10:09:48;;;;;;;6.07;3.60;;;22.70;26.70;;;;;;5045881;27;114558;-87
2023/04/23 10:12:15;;;;;;;8.90;4.10;;;22.70;26.40;;;;;;5043725;27;114941;-84
2023/04/23 10:15:04;;;;;;;7.32;3.28;;;22.70;27.20;;;;;;5031364;27;117573;-84
2023/04/23 10:17:39;;;;;;;5.85;3.90;;;22.70;26.40;;;;;;5014120;27;114741;-85
2023/04/23 10:20:07;;;;;;;6.47;3.53;;;22.70;26.50;;;;;;5047170;27;114384;-84
2023/04/23 10:22:36;;;;;;;5.65;3.67;;;22.60;27.50;;;;;;5029081;27;115062;-84
2023/04/23 10:25:07;;;;;;;4.95;3.50;;;22.70;26.90;;;;;;5044583;27;116070;-84
2023/04/23 10:27:45;;;;;;;6.72;3.97;;;22.70;26.80;;;;;;5029745;27;114626;-85
2023/04/23 10:30:21;;;;;;;5.65;3.78;;;22.80;26.50;;;;;;5013573;27;114694;-85
2023/04/23 10:32:49;;;;;;;6.97;3.55;;;22.80;27.30;;;;;;5012108;27;118509;-84
2023/04/23 10:35:16;;;;;;;5.35;3.28;;;22.90;27.40;;;;;;5047282;27;114614;-85
2023/04/23 10:37:45;;;;;;;6.00;3.58;;;22.90;26.80;;;;;;5030314;27;114567;-84
2023/04/23 10:40:14;;;;;;;6.25;3.90;;;22.90;26.50;;;;;;5027856;27;114541;-85
2023/04/23 10:42:44;;;;;;;5.57;3.55;;;22.90;26.80;;;;;;5013722;27;118159;-85
2023/04/23 10:45:16;;;;;;;5.53;3.42;;;22.90;26.80;;;;;;5048527;27;114812;-84
2023/04/23 10:47:52;;;;;;;5.95;3.45;;;22.80;26.00;;;;;;5014615;27;114278;-84
2023/04/23 10:50:27;;;;;;;6.22;3.33;;;22.60;26.50;;;;;;5046601;27;114477;-84
2023/04/23 10:52:56;;;;;;;5.40;3.20;;;22.70;26.30;;;;;;5012719;27;114974;-84
2023/04/23 10:55:25;;;;;;;5.43;3.22;;;22.50;26.30;;;;;;5030515;27;117600;-84
2023/04/23 10:57:59;;;;;;;6.57;3.22;;;22.50;26.20;;;;;;5030308;27;114422;-85
2023/04/23 11:00:42;;;;;;;4.68;3.20;;;22.30;26.60;;;;;;5041206;27;114386;-84
2023/04/23 11:03:34;;;;;;;6.78;3.80;;;22.30;26.80;;;;;;5052832;27;115580;-84
2023/04/23 11:06:06;;;;;;;7.20;3.30;;;22.40;27.00;;;;;;5023193;27;114643;-86
2023/04/23 11:08:34;;;;;;;4.43;2.95;;;22.50;26.90;;;;;;5011552;27;114427;-84
2023/04/23 11:11:06;;;;;;;5.50;3.33;;;22.70;27.20;;;;;;5046405;27;116421;-85
2023/04/23 11:13:33;;;;;;;6.45;3.42;;;22.80;27.40;;;;;;5026390;27;115639;-85
2023/04/23 11:16:20;;;;;;;5.53;3.13;;;22.90;27.30;;;;;;5045536;27;115187;-85
2023/04/23 11:19:10;;;;;;;6.68;3.60;;;23.20;27.00;;;;;;5031361;27;114420;-85
2023/04/23 11:22:13;;;;;;;5.13;3.58;;;23.30;27.30;;;;;;5047402;27;114610;-85
2023/04/23 11:24:41;;;;;;;5.07;3.20;;;23.20;27.40;;;;;;5043701;27;115102;-84
2023/04/23 11:27:10;;;;;;;6.68;3.25;;;23.00;26.00;;;;;;5044151;27;115054;-84
2023/04/23 11:29:38;;;;;;;4.85;3.53;;;22.80;26.90;;;;;;5047615;27;114578;-85
2023/04/23 11:32:09;;;;;;;7.85;3.67;;;22.70;27.20;;;;;;5012449;27;114224;-85
2023/04/23 11:34:43;;;;;;;5.20;3.35;;;22.60;27.10;;;;;;5012126;27;118891;-84
2023/04/23 11:37:12;;;;;;;8.10;4.18;;;22.50;27.60;;;;;;5028172;27;114657;-85
2023/04/23 11:39:40;;;;;;;6.43;3.50;;;22.40;27.80;;;;;;5012853;27;114704;-86
2023/04/23 11:42:12;;;;;;;6.55;3.60;;;22.30;27.70;;;;;;5011810;27;114157;-85
2023/04/23 11:44:42;;;;;;;4.25;3.20;;;22.20;27.70;;;;;;5009078;27;114904;-85
2023/04/23 11:47:11;;;;;;;5.63;3.53;;;22.10;27.80;;;;;;5011719;27;114589;-85
2023/04/23 11:49:39;;;;;;;5.82;3.58;;;22.10;27.60;;;;;;4988688;27;114505;-84
2023/04/23 11:52:06;;;;;;;5.75;3.20;;;22.10;28.10;;;;;;4995725;27;117212;-84
2023/04/23 11:54:34;;;;;;;6.70;3.30;;;22.10;28.00;;;;;;5041728;27;117187;-84
2023/04/23 11:57:04;;;;;;;7.22;3.47;;;22.20;27.80;;;;;;5026482;27;117992;-84
2023/04/23 11:59:33;;;;;;;5.93;3.60;;;22.30;27.80;;;;;;5012406;27;114787;-86
2023/04/23 12:02:02;;;;;;;9.65;3.85;;;22.30;28.10;;;;;;5009607;27;114714;-86
2023/04/23 12:04:32;;;;;;;4.63;3.22;;;22.30;28.20;;;;;;5024804;27;114910;-87
2023/04/23 12:06:59;;;;;;;5.88;3.65;;;22.30;27.80;;;;;;5011385;27;117880;-88
2023/04/23 12:09:27;;;;;;;7.13;3.38;;;22.30;28.20;;;;;;5028105;27;114536;-87
2023/04/23 12:11:57;;;;;;;6.10;3.35;;;22.30;28.20;;;;;;5011553;27;114516;-87
2023/04/23 12:14:27;;;;;;;6.47;3.40;;;22.30;28.10;;;;;;5010388;27;117657;-87
2023/04/23 12:16:56;;;;;;;6.90;3.55;;;22.30;28.00;;;;;;5004045;27;115919;-85
2023/04/23 12:19:28;;;;;;;5.20;3.60;;;22.30;27.70;;;;;;5023166;27;114640;-85
2023/04/23 12:21:57;;;;;;;7.78;3.35;;;22.20;27.90;;;;;;5007278;27;114613;-84
2023/04/23 12:24:25;;;;;;;6.45;3.03;;;22.20;28.40;;;;;;5006183;27;117544;-85
2023/04/23 12:26:57;;;;;;;5.63;3.10;;;22.20;28.10;;;;;;5022827;27;116809;-85
2023/04/23 12:29:24;;;;;;;5.78;3.30;;;22.10;27.40;;;;;;4986876;27;115187;-85
2023/04/23 12:31:52;;;;;;;5.80;3.63;;;22.10;27.70;;;;;;4987923;27;116010;-87
2023/04/23 12:34:20;;;;;;;6.47;3.22;;;22.00;27.70;;;;;;5005801;27;115151;-84
2023/04/23 12:36:49;;;;;;;6.10;3.33;;;22.00;28.10;;;;;;5022866;27;115169;-85
2023/04/23 12:39:40;;;;;;;6.18;3.28;;;22.00;27.80;;;;;;4989975;27;114626;-85